Flight Track Log - Related Links

Times and Time Zones

All times are in EDT time to prevent confusion due to time zone crossing. See the ASQ5389 flight status page for this flight to view local times or setup timezone preferences in your user account.

Time Position Orientation Groundspeed Altitude Reporting Facility
EDT Latitude Longitude Course Direction KTS MPH feet Rate Location/Type
Fri 09:45:48 AM 35.0500 -89.9667 12° North 148 170 1,100  Level KMEM
Fri 09:46:53 AM 35.1167 -89.9500 12° North 248 285 3,000 2,344 Climbing KMEM
Fri 09:47:56 AM 35.1833 -89.9333 12° North 271 312 6,100 2,000 Climbing KMEM
Fri 09:48:53 AM 35.2000 -89.8333 78° East 307 353 7,000 439 Climbing KMEM
Fri 09:49:59 AM 35.1833 -89.7167 100° East 302 348 7,000 615 Level KMEM
Fri 09:51:29 AM 35.1800 -89.5797 92° East 331 381 8,600 1,520 Climbing Memphis Center
Fri 09:52:29 AM 35.1961 -89.4628 80° East 331 381 10,800 1,300 Climbing Memphis Center
Fri 09:53:29 AM 35.2117 -89.3353 81° East 360 414 11,200 850 Climbing Memphis Center
Fri 09:54:29 AM 35.2333 -89.1775 80° East 402 463 12,500 1,500 Climbing Memphis Center
Fri 09:55:29 AM 35.2756 -89.0397 69° East 427 491 14,200 1,550 Climbing Memphis Center
Fri 09:56:29 AM 35.3303 -88.8986 65° Northeast 448 516 15,600 1,150 Climbing Memphis Center
Fri 09:57:29 AM 35.3850 -88.7500 66° East 458 527 16,500 800 Climbing Memphis Center
Fri 09:58:29 AM 35.4392 -88.6011 66° East 464 534 17,200 750 Climbing Memphis Center
Fri 09:59:29 AM 35.4994 -88.4494 64° Northeast 485 558 18,000 850 Climbing Memphis Center
Fri 10:00:29 AM 35.5514 -88.3028 66° East 493 567 18,900 1,050 Climbing Memphis Center
Fri 10:01:29 AM 35.6111 -88.1353 66° East 499 574 20,100 1,050 Climbing Memphis Center
Fri 10:02:29 AM 35.6686 -87.9806 65° Northeast 568 654 21,000 793 Climbing Memphis Center
Fri 10:03:30 AM 35.7261 -87.8228 66° East 523 602 21,700 700 Climbing Memphis Center
Fri 10:04:29 AM 35.7853 -87.6650 65° Northeast 503 579 22,400 605 Climbing Memphis Center
Fri 10:05:29 AM 35.8442 -87.5042 66° East 508 585 22,900 500 Climbing Memphis Center
Fri 10:06:29 AM 35.9028 -87.3408 66° East 513 590 23,400 500 Climbing Memphis Center
Fri 10:07:29 AM 35.9614 -87.1769 66° East 513 590 23,900 500 Climbing Memphis Center
Fri 10:08:29 AM 36.0217 -87.0106 66° East 513 590 24,400 500 Climbing Memphis Center
Fri 10:09:29 AM 36.0775 -86.8464 67° East 518 596 24,900 500 Climbing Memphis Center
Fri 10:10:29 AM 36.1289 -86.6797 69° East 518 596 25,400 500 Climbing Memphis Center
Fri 10:11:29 AM 36.1219 -86.5131 93° East 492 566 25,900 500 Climbing Memphis Center
Fri 10:12:29 AM 36.1131 -86.3644 94° East 477 549 26,400 500 Climbing Memphis Center
Fri 10:14:05 AM 36.0894 -86.0789 96° East 489 563 27,200 500 Climbing Atlanta Center
Fri 10:16:05 AM 36.0669 -85.7803 95° East 469 540 28,200 500 Climbing Atlanta Center
Fri 10:17:05 AM 36.0544 -85.6183 95° East 463 533 28,700 400 Climbing Atlanta Center
Fri 10:18:05 AM 36.0417 -85.4564 96° East 469 540 29,000 150 Climbing Atlanta Center
Fri 10:19:05 AM 36.0269 -85.2942 96° East 469 540 29,000  Level Atlanta Center
Fri 10:20:05 AM 36.0139 -85.1322 96° East 469 540 29,000  Level Atlanta Center
Fri 10:21:05 AM 36.0006 -84.9653 96° East 480 552 29,000  Level Atlanta Center
Fri 10:22:05 AM 35.9872 -84.7983 96° East 485 558 29,000  Level Atlanta Center
Fri 10:23:05 AM 35.9694 -84.6161 97° East 485 558 29,000  Level Atlanta Center
Fri 10:24:05 AM 35.9553 -84.4544 96° East 485 558 29,000  Level Atlanta Center
Fri 10:25:05 AM 35.9411 -84.2900 96° East 485 558 29,000  Level Atlanta Center
Fri 10:26:05 AM 35.9247 -84.1258 97° East 485 558 29,000  Level Atlanta Center
Fri 10:27:05 AM 35.9206 -83.9619 92° East 485 558 29,000  Level Atlanta Center
Fri 10:28:05 AM 35.9308 -83.7925 86° East 485 558 29,000  Level Atlanta Center
Fri 10:29:05 AM 35.9386 -83.6233 87° East 479 551 29,000  Level Atlanta Center
Fri 10:30:05 AM 35.9483 -83.4514 86° East 484 557 29,000  Level Atlanta Center
Fri 10:31:05 AM 35.9558 -83.2794 87° East 490 564 29,000  Level Atlanta Center
Fri 10:32:05 AM 35.9589 -83.1281 89° East 500 575 29,000  Level Atlanta Center
Fri 10:33:05 AM 35.9658 -82.9586 87° East 500 575 29,000  Level Atlanta Center
Fri 10:34:05 AM 35.9744 -82.7686 87° East 500 575 29,000  Level Atlanta Center
Fri 10:35:05 AM 35.9811 -82.6197 87° East 495 570 29,000  Level Atlanta Center
Fri 10:36:05 AM 36.0461 -82.4644 63° Northeast 489 563 29,000  Level Atlanta Center
Fri 10:37:05 AM 36.1272 -82.2983 59° Northeast 501 577 29,000  Level Atlanta Center
Fri 10:38:05 AM 36.1919 -82.1658 59° Northeast 516 594 29,000  Level Atlanta Center
Fri 10:39:05 AM 36.2686 -81.9967 61° Northeast 510 587 29,000  Level Atlanta Center
Fri 10:40:05 AM 36.3353 -81.8636 58° Northeast 504 580 29,000  Level Atlanta Center
Fri 10:41:05 AM 36.4033 -81.7119 61° Northeast 504 580 29,000 -150 Level Atlanta Center
Fri 10:42:05 AM 36.4792 -81.5447 61° Northeast 497 572 28,700 -450 Descending Atlanta Center
Fri 10:43:05 AM 36.5492 -81.3925 60° Northeast 504 580 28,100 -600 Descending Atlanta Center
Fri 10:44:05 AM 36.6186 -81.2375 61° Northeast 511 588 27,500 -600 Descending Atlanta Center
Fri 10:45:05 AM 36.6900 -81.0850 60° Northeast 511 588 26,900 -612 Descending Atlanta Center
Fri 10:47:31 AM 36.8561 -80.7111 61° Northeast 507 583 25,400 -553 Descending Washington Center
Fri 10:48:31 AM 36.9228 -80.5622 61° Northeast 496 571 25,000 -200 Descending Washington Center
Fri 10:49:31 AM 36.9731 -80.4042 68° East 491 565 25,000 -100 Level Washington Center
Fri 10:50:31 AM 37.0067 -80.2450 75° East 476 548 24,800 -350 Descending Washington Center
Fri 10:51:31 AM 37.0372 -80.0958 76° East 476 548 24,300 -500 Descending Washington Center
Fri 10:52:31 AM 37.0097 -79.9381 102° East 459 528 23,800 -500 Descending Washington Center
Fri 10:53:31 AM 36.9544 -79.7922 115° Southeast 445 512 23,300 -550 Descending Washington Center
Fri 10:54:31 AM 36.8953 -79.6306 115° Southeast 457 526 22,700 -550 Descending Washington Center
Fri 10:55:31 AM 36.8419 -79.4797 114° Southeast 462 532 22,200 -650 Descending Washington Center
Fri 10:56:31 AM 36.7903 -79.3344 114° Southeast 468 539 21,400 -1,500 Descending Washington Center
Fri 10:57:31 AM 36.7439 -79.2103 115° Southeast 454 522 19,200 -2,300 Descending Washington Center
Fri 10:58:31 AM 36.6978 -79.0814 114° Southeast 428 493 16,800 -2,500 Descending Washington Center
Fri 10:59:31 AM 36.6269 -79.0056 139° Southeast 303 349 14,200 -2,450 Descending Washington Center
Fri 11:00:31 AM 36.5422 -78.9786 166° South 292 336 11,900 -1,900 Descending Washington Center
Fri 11:01:31 AM 36.4614 -78.9572 168° South 297 342 10,400 -1,000 Descending Washington Center
Fri 11:02:31 AM 36.3811 -78.9228 161° South 302 348 9,900 -950 Descending Washington Center
Fri 11:03:31 AM 36.3261 -78.8689 142° Southeast 289 333 8,500 -966 Descending Washington Center
Fri 11:04:29 AM 36.2589 -78.8144 147° Southeast 263 303 8,000 -629 Descending Washington Center
Fri 11:05:35 AM 36.2058 -78.7633 142° Southeast 214 246 7,200 -1,033 Descending Washington Center
Fri 11:06:31 AM 36.1631 -78.7231 143° Southeast 233 268 5,900 -1,448 Descending Washington Center
Fri 11:07:31 AM 36.1144 -78.6722 140° Southeast 220 253 4,400 -1,400 Descending Washington Center
Fri 11:08:31 AM 36.0650 -78.6447 156° South 205 236 3,100 -750 Descending Washington Center
Fri 11:09:31 AM 36.0150 -78.6375 173° South 189 217 2,900 -375 Descending Washington Center
Fri 11:10:39 AM 35.9744 -78.6769 218° Southwest 153 176 2,300 -469 Descending Washington Center
Fri 11:11:39 AM 35.9464 -78.7144 227° Southwest 151 174 1,900 -520 Descending Washington Center
Fri 11:12:46 AM 35.9183 -78.7492 225° Southwest 127 146 1,200 -627 Descending Washington Center
Fri 11:14:00 AM 35.8776 -78.7875 219° Southwest  Level Estimated
Fri 11:21:00 AM 35.8776 -78.7875 90° East  Level Estimated
Fri 11:22:00 AM 35.8776 -78.7875 90° East  Level Estimated

Login

Don't have an account? Register now (free) for customized features, flight alerts, and more!